ZLXY

Xi'an Xianyang International

Airport
ICAO code
ZLXY
Summary
ICAO Region
APAC
ICAO Territory
Location

Xi'an, Shaanxi,

Coordinates
34° 26' 49" N , 108° 45' 5" E
Metar
ZLXY 242000Z 02004MPS CAVOK 24/13 Q1008 NOSIG

Xi'an Xianyang International Airport (IATA: XIY) serves Xi'an, Shaanxi, People's Republic of China.

Airport map

Aerial View

SKYbrary Partners:

Safety knowledge contributed by: